Portada
METAR-TAF:

METAR-TAF

Aeroports :

Simferòpoll, Rússia

latitud: 45-03-08N, longitud: 033-58-31E, altitud: 195 m

Observació

L'informe es va fer fa 39 minuts, a les 23:30 UTC
Vent 8 kt del Sud-Est
Temperatura 2°C
Humitat 75%
Pressió 1023 hPa
Visibilitat 10 km o més
sense núvols per sota de 1500 mi sense presència de cumulonimbus.

METAR: URFF 062330Z 13004MPS CAVOK 02/M02 Q1023 R19/090095 NOSIG

Hora: 03:09 (00:09 UTC)

Pronòstic

L'informe es va fer fa 1 hora i 19 minuts, a les 22:50 UTC
Pronòstic vàlid del 07 a les 00 UTC al 07 a les 24 UTC
Vent 6 kt del Sud-Est
Visibilitat 10 km o més
sense núvols per sota de 1500 mi sense presència de cumulonimbus.

TAF: URFF 062250Z 0700/0724 14003MPS CAVOK TX10/0711Z TNM01/0701Z

Observacions i pronòstics meteorològics de més de 4000 aeroports (METAR i TAF).

Les estacions disponibles són els punts grocs i vermells al mapa.

Posi el ratolí al punt desitjat per veure el nom de l'estació.

Feu clic per veure les observacions i els pronòstics meteorològics.

Per canviar el mapa: feu clic els botons verds amb una creu de color negre per apropar; al botó verd amb un guió per allunyar la imatge; o en les fletxes verdes per a mapes adjacents.


METAR-TAF: